Time;durP1;ratioP1;P1;durP2;ratioP2;P2;SDS_P1;SDS_P2;PMS_P1;PMS_P2;Temp;Humidity;BMP_temperature;BMP_pressure;BME280_temperature;BME280_humidity;BME280_pressure;Samples;Min_cycle;Max_cycle;Signal;HPM_P1;HPM_P2
2022/03/31 00:02:09;;;;;;;32.33;22.10;;;11.10;99.90;;;;;;5025705;28;20489;-67
2022/03/31 00:04:37;;;;;;;36.47;23.23;;;11.00;99.90;;;;;;5026155;28;20302;-67
2022/03/31 00:07:03;;;;;;;31.37;21.37;;;11.00;99.90;;;;;;5024930;28;20510;-69
2022/03/31 00:09:29;;;;;;;35.00;22.87;;;11.10;99.90;;;;;;5025855;28;20514;-67
2022/03/31 00:11:54;;;;;;;38.70;24.07;;;11.00;99.90;;;;;;5025961;28;20446;-67
2022/03/31 00:14:20;;;;;;;29.77;20.63;;;11.10;99.90;;;;;;5024085;28;20569;-67
2022/03/31 00:16:47;;;;;;;38.10;22.30;;;11.00;99.90;;;;;;5026426;28;20256;-68
2022/03/31 00:19:12;;;;;;;35.03;22.50;;;10.80;99.90;;;;;;5024936;28;20181;-68
2022/03/31 00:21:38;;;;;;;35.20;22.40;;;10.80;99.90;;;;;;5024832;28;20454;-67
2022/03/31 00:24:04;;;;;;;37.83;23.83;;;10.90;99.90;;;;;;5023912;28;20638;-67
2022/03/31 00:26:29;;;;;;;33.57;23.03;;;11.00;99.90;;;;;;5024146;28;20477;-67
2022/03/31 00:28:55;;;;;;;36.00;21.70;;;11.00;99.90;;;;;;5025845;28;20423;-68
2022/03/31 00:31:21;;;;;;;38.07;22.83;;;11.00;99.90;;;;;;5024623;28;20204;-67
2022/03/31 00:33:46;;;;;;;35.83;23.43;;;10.90;99.90;;;;;;5025541;28;20291;-68
2022/03/31 00:36:13;;;;;;;32.63;21.43;;;10.80;99.90;;;;;;5023794;28;20190;-67
2022/03/31 00:38:38;;;;;;;34.90;22.07;;;10.90;99.90;;;;;;5027258;28;20373;-69
2022/03/31 00:41:04;;;;;;;36.10;22.10;;;10.80;99.90;;;;;;5026574;28;20471;-67
2022/03/31 00:43:30;;;;;;;33.17;21.50;;;10.80;99.90;;;;;;5024528;28;20564;-68
2022/03/31 00:45:56;;;;;;;34.13;21.80;;;10.70;99.90;;;;;;5025685;28;20595;-68
2022/03/31 00:48:23;;;;;;;29.90;21.43;;;10.60;99.90;;;;;;5025515;28;20226;-68
2022/03/31 00:50:48;;;;;;;32.40;21.10;;;10.50;99.90;;;;;;5024794;28;20501;-68
2022/03/31 00:53:15;;;;;;;34.00;22.00;;;10.70;99.90;;;;;;5023192;28;20415;-69
2022/03/31 00:55:43;;;;;;;28.03;20.20;;;10.50;99.90;;;;;;5025857;28;20477;-68
2022/03/31 00:58:10;;;;;;;30.33;19.90;;;10.50;99.90;;;;;;5025317;28;21038;-68
2022/03/31 01:00:36;;;;;;;31.80;20.23;;;10.60;99.90;;;;;;5023934;28;20526;-69
2022/03/31 01:03:02;;;;;;;27.13;18.47;;;10.60;99.90;;;;;;5024869;28;20506;-67
2022/03/31 01:05:28;;;;;;;25.63;18.40;;;10.60;99.90;;;;;;5024470;28;20200;-68
2022/03/31 01:07:55;;;;;;;30.13;18.37;;;10.70;99.90;;;;;;5025856;28;20427;-67
2022/03/31 01:10:21;;;;;;;33.20;20.40;;;10.60;99.90;;;;;;5024569;28;20259;-68
2022/03/31 01:12:47;;;;;;;26.73;19.47;;;10.50;99.90;;;;;;5024902;28;20875;-67
2022/03/31 01:15:17;;;;;;;32.40;21.27;;;10.60;99.90;;;;;;5024811;28;20183;-68
2022/03/31 01:17:45;;;;;;;28.20;17.80;;;10.40;99.90;;;;;;5024811;28;20439;-67
2022/03/31 01:20:17;;;;;;;27.50;19.00;;;10.50;99.90;;;;;;5022382;28;20859;-68
2022/03/31 01:22:44;;;;;;;22.00;16.60;;;10.60;99.90;;;;;;5021875;28;20434;-68
2022/03/31 01:25:10;;;;;;;24.77;17.70;;;10.50;99.90;;;;;;5024878;28;20466;-68
2022/03/31 01:27:41;;;;;;;28.23;17.00;;;10.50;99.90;;;;;;5025039;28;20423;-68
2022/03/31 01:30:10;;;;;;;28.33;18.57;;;10.60;99.90;;;;;;5026642;28;20439;-67
2022/03/31 01:32:36;;;;;;;23.40;17.20;;;10.70;99.90;;;;;;5027923;28;20817;-68
2022/03/31 01:35:03;;;;;;;25.70;17.63;;;10.70;99.90;;;;;;5032532;28;20791;-68
2022/03/31 01:37:29;;;;;;;23.13;17.17;;;10.50;99.90;;;;;;5028748;28;20794;-69
2022/03/31 01:39:55;;;;;;;19.97;15.50;;;10.50;99.90;;;;;;5027428;28;20446;-68
2022/03/31 01:42:22;;;;;;;20.40;14.20;;;10.50;99.90;;;;;;5028766;28;20537;-68
2022/03/31 01:44:48;;;;;;;21.53;15.00;;;10.60;99.90;;;;;;5028683;28;20212;-68
2022/03/31 01:47:14;;;;;;;19.37;14.17;;;10.60;99.90;;;;;;5028170;28;20928;-69
2022/03/31 01:49:40;;;;;;;18.63;14.23;;;10.40;99.90;;;;;;5027672;28;20439;-68
2022/03/31 01:52:06;;;;;;;19.93;13.40;;;10.30;99.90;;;;;;5029677;28;20591;-69
2022/03/31 01:54:34;;;;;;;20.80;14.50;;;10.40;99.90;;;;;;5025795;28;20181;-68
2022/03/31 01:57:00;;;;;;;18.27;13.50;;;10.40;99.90;;;;;;5028581;28;20450;-68
2022/03/31 01:59:34;;;;;;;18.83;13.60;;;10.30;99.90;;;;;;5028371;28;20459;-68
2022/03/31 02:02:00;;;;;;;23.10;13.30;;;10.20;99.90;;;;;;5025183;28;20565;-68
2022/03/31 02:04:25;;;;;;;15.93;12.70;;;10.10;99.90;;;;;;5027990;28;20549;-68
2022/03/31 02:06:51;;;;;;;14.13;11.73;;;10.20;99.90;;;;;;5029025;28;20431;-68
2022/03/31 02:09:16;;;;;;;16.50;11.67;;;10.10;99.90;;;;;;5027494;28;20351;-68
2022/03/31 02:11:42;;;;;;;15.40;12.10;;;10.30;99.90;;;;;;5026675;28;20230;-68
2022/03/31 02:14:08;;;;;;;15.87;11.93;;;10.30;99.90;;;;;;5027537;28;20272;-68
2022/03/31 02:16:33;;;;;;;19.10;12.73;;;10.40;99.90;;;;;;5026748;28;20192;-68
2022/03/31 02:18:59;;;;;;;17.17;13.07;;;10.20;99.90;;;;;;5027671;28;20505;-68
2022/03/31 02:21:25;;;;;;;14.77;11.97;;;10.20;99.90;;;;;;5026768;28;20259;-68
2022/03/31 02:23:50;;;;;;;18.00;12.67;;;10.20;99.90;;;;;;5028171;28;20209;-68
2022/03/31 02:26:16;;;;;;;14.60;10.97;;;10.20;99.90;;;;;;5029141;28;20593;-67
2022/03/31 02:28:41;;;;;;;15.43;10.83;;;10.30;99.90;;;;;;5026420;28;20193;-69
2022/03/31 02:31:07;;;;;;;15.43;12.00;;;10.30;99.90;;;;;;5028008;28;20258;-68
2022/03/31 02:33:33;;;;;;;15.80;11.77;;;10.20;99.90;;;;;;5026509;28;20186;-68
2022/03/31 02:35:58;;;;;;;14.30;12.27;;;10.10;99.90;;;;;;5025785;28;20423;-67
2022/03/31 02:38:24;;;;;;;15.93;12.50;;;10.10;99.90;;;;;;5027447;28;20189;-67
2022/03/31 02:40:49;;;;;;;17.70;12.80;;;10.10;99.90;;;;;;5025069;28;20580;-68
2022/03/31 02:43:16;;;;;;;18.47;14.40;;;10.00;99.90;;;;;;5026841;28;20183;-68
2022/03/31 02:45:41;;;;;;;14.13;12.60;;;10.00;99.90;;;;;;5027751;28;20249;-67
2022/03/31 02:48:07;;;;;;;14.10;12.37;;;10.00;99.90;;;;;;5026771;28;20455;-68
2022/03/31 02:50:33;;;;;;;15.60;13.03;;;9.90;99.90;;;;;;5027204;28;20279;-67
2022/03/31 02:55:43;;;;;;;19.60;14.37;;;9.90;99.90;;;;;;5027298;28;20194;-68
2022/03/31 02:58:09;;;;;;;18.20;14.03;;;9.80;99.90;;;;;;5027528;28;20431;-68
2022/03/31 03:00:37;;;;;;;17.23;13.87;;;9.80;99.90;;;;;;5025759;28;20429;-68
2022/03/31 03:03:03;;;;;;;17.83;13.23;;;9.70;99.90;;;;;;5026360;28;20180;-68
2022/03/31 03:05:30;;;;;;;19.03;14.97;;;9.50;99.90;;;;;;5026732;28;20852;-68
2022/03/31 03:07:56;;;;;;;17.73;14.33;;;9.50;99.90;;;;;;5026388;28;20534;-68
2022/03/31 03:10:22;;;;;;;19.87;14.30;;;9.50;99.90;;;;;;5026778;28;20980;-68
2022/03/31 03:12:51;;;;;;;21.40;14.43;;;9.50;99.90;;;;;;5026738;28;20423;-68
2022/03/31 03:15:17;;;;;;;18.53;13.30;;;9.50;99.90;;;;;;5026785;28;20744;-68
2022/03/31 03:17:45;;;;;;;16.77;13.07;;;9.60;99.90;;;;;;5024574;28;20431;-69
2022/03/31 03:20:13;;;;;;;20.13;14.00;;;9.40;99.90;;;;;;5026626;28;20455;-69
2022/03/31 03:22:50;;;;;;;20.13;14.57;;;9.40;99.90;;;;;;5025397;28;20827;-69
2022/03/31 03:25:18;;;;;;;16.40;13.60;;;9.40;99.90;;;;;;5025747;28;20454;-68
2022/03/31 03:27:48;;;;;;;19.57;14.10;;;9.30;99.90;;;;;;5026526;28;20454;-68
2022/03/31 03:30:15;;;;;;;21.33;14.63;;;9.20;99.90;;;;;;5026365;28;20469;-68
2022/03/31 03:32:41;;;;;;;18.97;14.67;;;9.20;99.90;;;;;;5025870;28;20450;-68
2022/03/31 03:35:09;;;;;;;18.67;14.40;;;9.10;99.90;;;;;;5025983;28;20442;-68
2022/03/31 03:37:39;;;;;;;18.37;14.20;;;9.10;99.90;;;;;;5026982;28;20212;-68
2022/03/31 03:40:06;;;;;;;17.73;13.83;;;9.20;99.90;;;;;;5023405;28;20475;-68
2022/03/31 03:42:33;;;;;;;16.13;13.43;;;9.10;99.90;;;;;;5025089;28;20465;-68
2022/03/31 03:44:59;;;;;;;18.60;14.23;;;8.90;99.90;;;;;;5025679;28;20617;-67
2022/03/31 03:47:26;;;;;;;18.03;12.50;;;8.90;99.90;;;;;;5026391;28;20427;-67
2022/03/31 03:49:52;;;;;;;19.37;14.17;;;8.90;99.90;;;;;;5026141;28;20438;-68
2022/03/31 03:52:20;;;;;;;18.40;14.40;;;8.80;99.90;;;;;;5025073;28;20592;-68
2022/03/31 03:54:46;;;;;;;17.83;13.40;;;8.70;99.90;;;;;;5026521;28;20936;-69
2022/03/31 03:57:11;;;;;;;18.50;14.20;;;8.80;99.90;;;;;;5025614;28;20437;-67
2022/03/31 03:59:38;;;;;;;19.73;14.10;;;8.80;99.90;;;;;;5026479;28;20588;-68
2022/03/31 04:02:04;;;;;;;18.93;13.90;;;8.70;99.90;;;;;;5023618;28;20295;-69
2022/03/31 04:04:30;;;;;;;19.40;13.90;;;8.80;99.90;;;;;;5025324;28;20863;-68
2022/03/31 04:06:56;;;;;;;18.67;14.90;;;8.80;99.90;;;;;;5024602;28;20434;-68
2022/03/31 04:09:22;;;;;;;19.80;14.40;;;8.90;99.90;;;;;;5024231;28;20742;-68
2022/03/31 04:11:48;;;;;;;19.00;14.60;;;8.90;99.90;;;;;;5025540;28;20819;-69
2022/03/31 04:14:14;;;;;;;18.40;12.50;;;8.90;99.90;;;;;;5026704;28;20441;-69
2022/03/31 04:16:40;;;;;;;18.17;14.23;;;8.80;99.90;;;;;;5024879;28;20215;-68
2022/03/31 04:19:08;;;;;;;22.20;15.70;;;8.80;99.90;;;;;;5025031;28;20192;-69
2022/03/31 04:21:35;;;;;;;19.43;13.50;;;8.90;99.90;;;;;;5024483;28;20200;-68
2022/03/31 04:24:02;;;;;;;18.77;14.27;;;8.90;99.90;;;;;;5025466;28;20467;-69
2022/03/31 04:26:28;;;;;;;18.27;13.30;;;9.00;99.90;;;;;;5026597;28;20430;-68
2022/03/31 04:28:53;;;;;;;21.43;15.03;;;9.00;99.90;;;;;;5024691;28;20435;-68
2022/03/31 04:31:19;;;;;;;18.67;14.20;;;9.00;99.90;;;;;;5023279;28;20543;-69
2022/03/31 04:33:45;;;;;;;16.23;13.50;;;9.00;99.90;;;;;;5024893;28;20654;-68
2022/03/31 04:36:10;;;;;;;20.53;14.13;;;8.70;99.90;;;;;;5025693;28;20181;-68
2022/03/31 04:38:36;;;;;;;22.10;14.50;;;8.80;99.90;;;;;;5025161;28;20184;-68
2022/03/31 04:41:02;;;;;;;18.90;13.97;;;8.80;99.90;;;;;;5025177;28;20568;-68
2022/03/31 04:43:27;;;;;;;20.47;13.73;;;8.90;99.90;;;;;;5025601;28;20233;-68
2022/03/31 04:45:53;;;;;;;18.33;14.07;;;8.80;99.90;;;;;;5024109;28;20219;-68
2022/03/31 04:48:19;;;;;;;22.10;15.17;;;8.90;99.90;;;;;;5024659;28;20184;-68
2022/03/31 04:50:45;;;;;;;19.00;14.50;;;8.80;99.90;;;;;;5025606;28;20196;-68
2022/03/31 04:53:11;;;;;;;19.10;15.40;;;8.70;99.90;;;;;;5022798;28;20263;-68
2022/03/31 04:55:37;;;;;;;19.57;14.37;;;8.70;99.90;;;;;;5025321;28;20177;-69
2022/03/31 04:58:06;;;;;;;20.60;14.73;;;8.80;99.90;;;;;;5025309;28;20924;-69
2022/03/31 05:00:32;;;;;;;21.30;16.33;;;8.70;99.90;;;;;;5025244;28;20443;-69
2022/03/31 05:02:59;;;;;;;19.10;14.77;;;8.80;99.90;;;;;;5023763;28;20431;-69
2022/03/31 05:05:25;;;;;;;20.47;15.17;;;8.80;99.90;;;;;;5026772;28;21035;-68
2022/03/31 05:07:51;;;;;;;20.97;14.60;;;8.90;99.90;;;;;;5030114;28;20451;-68
2022/03/31 05:10:16;;;;;;;19.90;15.80;;;8.80;99.90;;;;;;5027162;28;20523;-67
2022/03/31 05:12:42;;;;;;;19.07;13.93;;;8.80;99.90;;;;;;5029051;28;20673;-68
2022/03/31 05:15:08;;;;;;;26.70;15.70;;;8.80;99.90;;;;;;5028896;28;20184;-68
2022/03/31 05:17:35;;;;;;;20.87;15.27;;;8.60;99.90;;;;;;5027360;28;20543;-68
2022/03/31 05:20:11;;;;;;;22.60;15.80;;;8.70;99.90;;;;;;5028845;28;20450;-68
2022/03/31 05:22:38;;;;;;;21.00;14.77;;;8.60;99.90;;;;;;5028326;28;20801;-68
2022/03/31 05:25:07;;;;;;;22.17;15.87;;;8.60;99.90;;;;;;5029198;28;20521;-68
2022/03/31 05:27:33;;;;;;;24.17;16.23;;;8.60;99.90;;;;;;5026821;28;20439;-68
2022/03/31 05:29:59;;;;;;;23.50;16.07;;;8.50;99.90;;;;;;5029483;28;20557;-68
2022/03/31 05:32:24;;;;;;;23.20;16.37;;;8.50;99.90;;;;;;5028768;28;20533;-68
2022/03/31 05:34:51;;;;;;;20.33;15.40;;;8.50;99.90;;;;;;5028695;28;20618;-68
2022/03/31 05:37:16;;;;;;;20.60;14.80;;;8.40;99.90;;;;;;5029696;28;20207;-68
2022/03/31 05:39:42;;;;;;;22.60;15.43;;;8.40;99.90;;;;;;5027362;28;20971;-68
2022/03/31 05:42:08;;;;;;;22.83;17.00;;;8.50;99.90;;;;;;5028341;28;20283;-68
2022/03/31 05:44:33;;;;;;;22.70;16.60;;;8.60;99.90;;;;;;5027754;28;20222;-68
2022/03/31 05:46:59;;;;;;;23.90;15.67;;;8.70;99.90;;;;;;5028768;28;20420;-68
2022/03/31 05:49:25;;;;;;;23.73;16.77;;;8.50;99.90;;;;;;5029556;28;20188;-68
2022/03/31 05:51:50;;;;;;;23.73;15.87;;;8.60;99.90;;;;;;5027600;28;20402;-69
2022/03/31 05:54:16;;;;;;;29.37;18.40;;;8.60;99.90;;;;;;5026090;28;20191;-69
2022/03/31 05:56:43;;;;;;;25.57;16.30;;;8.60;99.90;;;;;;5025801;28;20187;-68
2022/03/31 05:59:09;;;;;;;24.00;16.47;;;8.50;99.90;;;;;;5028643;28;20222;-68
2022/03/31 06:01:34;;;;;;;22.40;15.07;;;8.70;99.90;;;;;;5027465;28;20859;-68
2022/03/31 06:04:00;;;;;;;27.20;16.17;;;8.80;99.90;;;;;;5028307;28;20458;-69
2022/03/31 06:06:26;;;;;;;21.40;15.87;;;8.80;99.90;;;;;;5026971;28;20188;-69
2022/03/31 06:08:52;;;;;;;23.30;16.10;;;8.80;99.90;;;;;;5028055;28;20204;-68
2022/03/31 06:11:18;;;;;;;24.27;16.27;;;8.80;99.90;;;;;;5026395;28;20208;-68
2022/03/31 06:13:44;;;;;;;24.27;16.37;;;8.80;99.90;;;;;;5029409;28;20581;-69
2022/03/31 06:16:11;;;;;;;24.83;17.13;;;8.80;99.90;;;;;;5028538;28;20187;-69
2022/03/31 06:18:38;;;;;;;30.03;15.03;;;8.70;99.90;;;;;;5028984;28;21003;-68
2022/03/31 06:21:03;;;;;;;25.03;16.77;;;8.70;99.90;;;;;;5009721;28;20450;-68
2022/03/31 06:23:29;;;;;;;22.03;16.23;;;8.80;99.90;;;;;;5027390;28;20935;-69
2022/03/31 06:25:55;;;;;;;28.73;17.40;;;8.80;99.90;;;;;;5028844;28;20205;-68
2022/03/31 06:28:21;;;;;;;29.07;17.17;;;8.80;99.90;;;;;;5027718;28;20423;-69
2022/03/31 06:30:48;;;;;;;22.20;14.43;;;8.80;99.90;;;;;;5027363;28;20970;-68
2022/03/31 06:33:15;;;;;;;23.93;16.70;;;8.70;99.90;;;;;;5027533;28;20188;-68
2022/03/31 06:35:41;;;;;;;19.00;13.97;;;8.80;99.90;;;;;;5027364;28;20492;-68
2022/03/31 06:38:07;;;;;;;26.00;16.60;;;8.80;99.90;;;;;;5027464;28;20432;-68
2022/03/31 06:40:37;;;;;;;26.03;17.40;;;8.80;99.90;;;;;;5025180;28;20819;-68
2022/03/31 06:43:03;;;;;;;26.40;16.93;;;8.80;99.90;;;;;;5044954;22;20525;-65
2022/03/31 06:45:29;;;;;;;25.23;17.93;;;8.70;99.90;;;;;;5045517;28;20557;-65
2022/03/31 06:47:56;;;;;;;29.30;17.23;;;8.70;99.90;;;;;;5046291;28;20430;-65
2022/03/31 06:50:22;;;;;;;22.03;15.50;;;8.80;99.90;;;;;;5046486;28;20466;-65
2022/03/31 06:52:48;;;;;;;23.00;16.07;;;8.70;99.90;;;;;;5040335;28;20864;-65
2022/03/31 06:55:13;;;;;;;27.40;17.23;;;8.70;99.90;;;;;;5022140;28;20605;-65
2022/03/31 06:57:39;;;;;;;26.10;17.30;;;8.60;99.90;;;;;;5017411;28;20254;-65
2022/03/31 07:00:06;;;;;;;25.60;16.60;;;8.70;99.90;;;;;;5022784;28;20223;-65
2022/03/31 07:02:31;;;;;;;30.63;20.53;;;8.70;99.90;;;;;;5024215;28;20196;-64
2022/03/31 07:04:57;;;;;;;25.57;16.87;;;8.70;99.90;;;;;;5021888;28;20466;-65
2022/03/31 07:07:24;;;;;;;25.00;15.97;;;8.70;99.90;;;;;;5026004;28;20189;-65
2022/03/31 07:09:51;;;;;;;33.70;16.60;;;8.70;99.90;;;;;;5026392;28;20561;-64
2022/03/31 07:12:16;;;;;;;22.57;15.37;;;8.80;99.90;;;;;;5021486;28;20436;-65
2022/03/31 07:14:43;;;;;;;27.03;17.87;;;8.90;99.90;;;;;;5022451;28;20989;-64
2022/03/31 07:17:09;;;;;;;19.97;15.40;;;8.90;99.90;;;;;;5022080;28;20200;-65
2022/03/31 07:19:35;;;;;;;25.87;16.37;;;8.90;99.90;;;;;;5022766;28;20432;-65
2022/03/31 07:22:01;;;;;;;22.63;15.70;;;8.90;99.90;;;;;;5020876;28;20588;-65
2022/03/31 07:24:27;;;;;;;26.43;18.10;;;8.90;99.90;;;;;;5023057;28;20296;-64
2022/03/31 07:26:52;;;;;;;23.70;16.27;;;8.80;99.90;;;;;;5022983;28;21070;-64
2022/03/31 07:29:18;;;;;;;27.50;17.90;;;8.80;99.90;;;;;;5020115;28;20420;-64
2022/03/31 07:31:44;;;;;;;23.00;15.90;;;9.00;99.90;;;;;;5020903;28;20242;-65
2022/03/31 07:34:10;;;;;;;25.87;17.50;;;9.00;99.90;;;;;;5021451;28;20218;-65
2022/03/31 07:36:36;;;;;;;30.07;17.87;;;9.00;99.90;;;;;;5022306;28;20439;-65
2022/03/31 07:39:01;;;;;;;28.20;17.40;;;9.00;99.90;;;;;;5018829;28;20190;-65
2022/03/31 07:41:27;;;;;;;24.50;15.40;;;9.10;99.90;;;;;;5019786;28;20232;-65
2022/03/31 07:43:53;;;;;;;22.60;16.30;;;9.20;99.90;;;;;;5017351;28;20470;-65
2022/03/31 07:46:18;;;;;;;21.43;15.93;;;9.30;99.90;;;;;;5023201;28;20180;-65
2022/03/31 07:48:44;;;;;;;25.30;17.33;;;9.30;99.90;;;;;;5022885;28;20242;-64
2022/03/31 07:51:09;;;;;;;26.67;17.23;;;9.30;99.90;;;;;;5017105;28;20316;-64
2022/03/31 07:53:35;;;;;;;25.77;16.83;;;9.40;99.90;;;;;;5021771;28;20228;-65
2022/03/31 07:56:03;;;;;;;25.20;18.37;;;9.40;99.90;;;;;;5021156;28;20184;-65
2022/03/31 07:58:29;;;;;;;27.67;17.67;;;9.50;99.90;;;;;;5022351;28;20189;-66
2022/03/31 08:00:55;;;;;;;28.20;16.37;;;9.60;99.90;;;;;;5029148;28;20791;-65
2022/03/31 08:03:22;;;;;;;27.40;18.57;;;9.50;99.90;;;;;;5021195;28;20497;-64
2022/03/31 08:05:48;;;;;;;26.30;17.80;;;9.60;99.90;;;;;;5018736;28;20589;-64
2022/03/31 08:08:19;;;;;;;26.07;16.60;;;9.50;99.90;;;;;;5013672;28;20501;-63
2022/03/31 08:10:45;;;;;;;27.17;18.37;;;9.50;99.90;;;;;;5021328;28;20498;-63
2022/03/31 08:13:10;;;;;;;26.47;18.67;;;9.60;99.90;;;;;;5020891;28;20443;-64
2022/03/31 08:15:37;;;;;;;24.30;16.30;;;9.60;99.90;;;;;;5022142;28;20427;-63
2022/03/31 08:18:03;;;;;;;26.80;18.07;;;9.70;99.90;;;;;;5018024;28;20269;-64
2022/03/31 08:20:28;;;;;;;30.60;19.80;;;9.80;99.90;;;;;;5019473;28;20793;-64
2022/03/31 08:22:55;;;;;;;28.03;18.67;;;9.80;99.90;;;;;;5018434;28;20464;-64
2022/03/31 08:25:21;;;;;;;24.73;17.23;;;9.90;99.90;;;;;;5021829;28;20204;-64
2022/03/31 08:27:47;;;;;;;24.50;18.33;;;9.70;99.90;;;;;;5019458;28;20442;-64
2022/03/31 08:30:16;;;;;;;25.50;19.27;;;9.70;99.90;;;;;;5020787;28;20210;-64
2022/03/31 08:32:43;;;;;;;29.33;19.50;;;9.70;99.90;;;;;;5020079;28;20512;-64
2022/03/31 08:35:10;;;;;;;31.17;19.93;;;9.80;99.90;;;;;;5019695;28;20474;-64
2022/03/31 08:37:37;;;;;;;28.07;20.13;;;9.70;99.90;;;;;;5021358;28;20489;-64
2022/03/31 08:40:04;;;;;;;27.30;19.10;;;9.70;99.90;;;;;;5022006;28;20523;-64
2022/03/31 08:42:30;;;;;;;27.80;18.70;;;9.80;99.90;;;;;;5022242;28;20792;-64
2022/03/31 08:44:57;;;;;;;24.83;17.43;;;9.70;99.90;;;;;;5021637;28;20469;-64
2022/03/31 08:47:25;;;;;;;26.50;18.00;;;9.80;99.90;;;;;;5022859;28;20427;-64
2022/03/31 08:49:50;;;;;;;30.50;20.30;;;9.80;99.90;;;;;;5021538;28;20799;-65
2022/03/31 08:52:16;;;;;;;26.60;19.73;;;9.80;99.90;;;;;;5020987;28;20431;-65
2022/03/31 08:54:42;;;;;;;24.10;16.57;;;9.70;99.90;;;;;;5020111;28;20609;-65
2022/03/31 08:57:08;;;;;;;24.80;17.83;;;9.80;99.90;;;;;;5023174;28;20626;-66
2022/03/31 08:59:34;;;;;;;23.53;17.00;;;10.00;99.90;;;;;;5020571;28;20570;-66
2022/03/31 09:01:59;;;;;;;27.50;17.47;;;10.10;99.90;;;;;;5017072;28;20184;-66
2022/03/31 09:04:26;;;;;;;25.77;17.27;;;10.30;99.90;;;;;;5021416;28;20212;-65
2022/03/31 09:07:08;;;;;;;23.43;17.37;;;10.30;99.90;;;;;;5016659;28;20657;-65
2022/03/31 09:09:46;;;;;;;23.27;16.23;;;10.40;99.90;;;;;;5021904;28;20518;-65
2022/03/31 09:12:12;;;;;;;23.20;17.17;;;10.40;99.90;;;;;;5019213;28;20415;-65
2022/03/31 09:14:37;;;;;;;22.60;16.07;;;10.40;99.90;;;;;;5019529;28;20982;-65
2022/03/31 09:17:14;;;;;;;28.67;17.40;;;10.20;99.90;;;;;;5019991;28;20195;-65
2022/03/31 09:19:41;;;;;;;23.00;16.27;;;10.40;99.90;;;;;;5019785;28;20250;-65
2022/03/31 09:22:06;;;;;;;23.17;15.27;;;10.50;99.90;;;;;;5017795;28;20439;-65
2022/03/31 09:24:32;;;;;;;20.97;15.63;;;10.50;99.90;;;;;;5018410;28;20475;-65
2022/03/31 09:26:59;;;;;;;22.97;14.93;;;10.40;99.90;;;;;;5021033;28;20788;-65
2022/03/31 09:29:27;;;;;;;21.57;16.53;;;10.40;99.90;;;;;;5019979;28;20192;-65
2022/03/31 09:32:05;;;;;;;24.73;16.20;;;10.40;99.90;;;;;;5018818;28;20440;-65
2022/03/31 09:34:42;;;;;;;23.23;17.10;;;10.50;99.90;;;;;;5020310;28;20447;-65
2022/03/31 09:37:08;;;;;;;21.13;14.47;;;10.40;99.90;;;;;;5020295;28;20433;-65
2022/03/31 09:39:34;;;;;;;21.87;15.93;;;10.50;99.90;;;;;;5018463;28;20476;-65
2022/03/31 09:42:00;;;;;;;21.60;13.83;;;10.60;99.90;;;;;;5017982;28;20747;-65
2022/03/31 09:44:25;;;;;;;22.20;15.00;;;10.60;99.90;;;;;;5014614;28;20472;-65
2022/03/31 09:46:52;;;;;;;23.00;16.60;;;10.60;99.90;;;;;;5018551;28;20200;-65
2022/03/31 09:49:24;;;;;;;18.10;14.57;;;10.50;99.90;;;;;;5020179;28;20496;-65
2022/03/31 09:51:52;;;;;;;18.27;14.27;;;10.60;99.90;;;;;;5022359;28;20420;-65
2022/03/31 09:54:19;;;;;;;20.80;15.40;;;10.60;99.90;;;;;;5040661;28;20457;-65
2022/03/31 09:56:47;;;;;;;20.13;14.50;;;10.80;99.90;;;;;;5023115;28;20442;-65
2022/03/31 09:59:14;;;;;;;18.13;14.00;;;10.60;99.90;;;;;;5021580;28;20434;-65
2022/03/31 10:01:41;;;;;;;20.10;13.50;;;10.60;99.90;;;;;;5023853;28;20451;-65
2022/03/31 10:04:09;;;;;;;19.10;15.10;;;10.60;99.90;;;;;;5023418;28;20480;-65
2022/03/31 10:06:42;;;;;;;21.13;15.13;;;10.70;99.90;;;;;;5021007;28;20467;-65
2022/03/31 10:09:10;;;;;;;20.00;13.77;;;10.70;99.90;;;;;;5026798;28;20431;-65
2022/03/31 10:11:46;;;;;;;21.23;14.40;;;10.80;99.90;;;;;;5025441;28;20427;-65
2022/03/31 10:14:52;;;;;;;17.87;14.10;;;10.80;99.90;;;;;;5024052;28;20804;-65
2022/03/31 10:17:24;;;;;;;21.40;15.90;;;10.80;99.90;;;;;;5023278;28;20424;-65
2022/03/31 10:19:50;;;;;;;20.03;14.47;;;10.70;99.90;;;;;;5024348;28;20434;-65
2022/03/31 10:25:17;;;;;;;18.40;14.07;;;10.70;99.90;;;;;;5021141;28;20697;-65
2022/03/31 10:27:49;;;;;;;19.10;13.93;;;10.60;99.90;;;;;;5023497;28;20419;-65
2022/03/31 10:30:28;;;;;;;20.20;14.83;;;10.70;99.90;;;;;;5022015;28;21009;-64
2022/03/31 10:32:59;;;;;;;17.37;13.10;;;10.70;99.90;;;;;;5019156;28;20435;-65
2022/03/31 10:35:28;;;;;;;19.77;13.60;;;10.80;99.90;;;;;;5024578;28;20772;-64
2022/03/31 10:37:54;;;;;;;17.77;13.30;;;10.80;99.90;;;;;;5013927;28;20428;-65
2022/03/31 10:40:35;;;;;;;20.00;13.70;;;10.80;99.90;;;;;;5022182;28;21048;-65
2022/03/31 10:43:01;;;;;;;16.60;13.00;;;10.70;99.90;;;;;;5019980;28;20467;-65
2022/03/31 10:45:39;;;;;;;20.80;14.80;;;10.80;99.90;;;;;;5031894;28;20462;-64
2022/03/31 10:48:19;;;;;;;18.90;14.83;;;10.90;99.90;;;;;;5022253;28;20509;-65
2022/03/31 10:50:47;;;;;;;19.50;15.03;;;10.90;99.90;;;;;;5020338;28;20532;-64
2022/03/31 10:53:13;;;;;;;20.30;13.80;;;10.80;99.90;;;;;;5019132;28;21029;-64
2022/03/31 10:55:49;;;;;;;18.67;14.00;;;10.90;99.90;;;;;;5018474;28;20507;-65
2022/03/31 10:58:27;;;;;;;18.97;13.30;;;10.90;99.90;;;;;;5017590;28;20442;-65
2022/03/31 11:00:54;;;;;;;18.77;13.10;;;10.80;99.90;;;;;;5025882;28;20431;-65
2022/03/31 11:03:20;;;;;;;18.93;14.23;;;10.90;99.90;;;;;;5037400;28;20589;-65
2022/03/31 11:05:47;;;;;;;17.47;13.50;;;11.00;99.90;;;;;;5021692;28;20584;-65
2022/03/31 11:08:17;;;;;;;22.10;15.33;;;11.00;99.90;;;;;;5017720;28;20481;-65
2022/03/31 11:10:46;;;;;;;18.13;12.97;;;11.10;99.90;;;;;;5023756;28;20435;-65
2022/03/31 11:13:13;;;;;;;19.87;14.80;;;11.30;99.90;;;;;;5019166;28;20469;-65
2022/03/31 11:15:39;;;;;;;20.53;14.70;;;11.20;99.90;;;;;;5020763;28;20547;-65
2022/03/31 11:18:05;;;;;;;18.37;13.27;;;11.10;99.90;;;;;;5023065;28;20446;-65
2022/03/31 11:20:31;;;;;;;21.63;14.70;;;11.20;99.90;;;;;;5021877;28;20423;-65
2022/03/31 11:23:03;;;;;;;18.77;13.67;;;11.20;99.90;;;;;;5038346;28;20546;-65
2022/03/31 11:25:28;;;;;;;20.23;13.10;;;11.20;99.90;;;;;;5022050;28;20211;-65
2022/03/31 11:27:56;;;;;;;16.13;12.80;;;11.20;99.90;;;;;;5023982;28;20428;-65
2022/03/31 11:30:25;;;;;;;18.37;13.07;;;11.20;99.90;;;;;;5019542;28;20181;-64
2022/03/31 11:32:58;;;;;;;18.93;12.80;;;11.20;99.90;;;;;;5016432;28;20999;-64
2022/03/31 11:35:26;;;;;;;17.93;12.90;;;11.20;99.90;;;;;;5022530;28;20621;-64
2022/03/31 11:37:54;;;;;;;18.40;13.60;;;11.10;99.90;;;;;;5021324;28;20521;-64
2022/03/31 11:40:25;;;;;;;19.47;12.87;;;11.10;99.90;;;;;;5023455;28;20959;-64
2022/03/31 11:42:54;;;;;;;15.43;11.10;;;11.10;99.90;;;;;;5020989;28;20485;-64
2022/03/31 11:45:24;;;;;;;17.13;12.30;;;11.10;99.90;;;;;;5021783;28;20598;-64
2022/03/31 11:48:07;;;;;;;18.27;12.37;;;11.00;99.90;;;;;;5021806;28;20424;-64
2022/03/31 11:50:36;;;;;;;15.67;12.13;;;11.00;99.90;;;;;;5024681;28;20455;-64
2022/03/31 11:53:04;;;;;;;16.67;12.73;;;11.10;99.90;;;;;;5021048;28;20452;-65
2022/03/31 11:55:30;;;;;;;17.20;13.37;;;11.40;99.90;;;;;;5021026;28;20446;-64
2022/03/31 11:58:00;;;;;;;16.57;12.23;;;11.40;99.90;;;;;;5021402;28;20802;-66
2022/03/31 12:00:28;;;;;;;20.13;15.03;;;11.50;99.90;;;;;;5021897;28;20459;-65
2022/03/31 12:02:58;;;;;;;18.80;12.77;;;11.60;99.90;;;;;;5020141;28;20482;-64
2022/03/31 12:05:25;;;;;;;16.43;12.43;;;11.50;99.90;;;;;;5017881;28;21193;-64
2022/03/31 12:07:52;;;;;;;16.17;13.20;;;11.40;99.90;;;;;;5021296;28;20427;-64
2022/03/31 12:10:18;;;;;;;20.73;12.50;;;11.40;99.90;;;;;;5015165;28;20467;-64
2022/03/31 12:12:52;;;;;;;14.47;10.63;;;11.30;99.90;;;;;;5022459;28;20485;-64
2022/03/31 12:15:20;;;;;;;15.70;12.33;;;11.20;99.90;;;;;;5019689;28;20992;-65
2022/03/31 12:18:18;;;;;;;18.00;12.23;;;11.20;99.90;;;;;;5018161;28;20804;-64
2022/03/31 12:20:49;;;;;;;14.20;10.63;;;11.40;99.90;;;;;;5004932;28;20812;-64
2022/03/31 12:23:21;;;;;;;16.43;11.53;;;11.40;99.90;;;;;;5018463;28;20455;-64
2022/03/31 12:25:47;;;;;;;17.97;11.93;;;11.50;99.90;;;;;;5017563;28;20507;-64
2022/03/31 12:28:13;;;;;;;14.63;11.30;;;11.50;99.90;;;;;;5019525;28;20834;-64
2022/03/31 12:30:47;;;;;;;15.67;11.53;;;11.50;99.90;;;;;;5019785;28;20423;-64
2022/03/31 12:33:24;;;;;;;14.70;11.10;;;11.40;99.90;;;;;;5019618;28;20443;-64
2022/03/31 12:36:02;;;;;;;16.43;12.03;;;11.30;99.90;;;;;;5016750;28;20526;-64
2022/03/31 12:38:38;;;;;;;15.03;11.20;;;11.40;99.90;;;;;;5021084;28;20465;-66